Chinchilla Airport


Codes: YCCA/CCL
Name: Chinchilla Airport
City:
Country: Australia
Elevation: 1028 ft.

Photos at Chinchilla Airport


   Photos courtesy of SpottingLog. You can add your own sightings and photos by signing up for a free trial today.



No photos found.

Weather at Chinchilla Airport


Time (UTC)DescriptionTempratureWindCloud coverageVisibilityPressureHumidity
21-Jun-2024 12:00Overcast Clouds12°C11 mph, S92%10000m1023hPa84%
21-Jun-2024 15:00Overcast Clouds12°C9 mph, S95%10000m1022hPa71%
21-Jun-2024 18:00Overcast Clouds11°C9 mph, S97%10000m1022hPa64%
21-Jun-2024 21:00Overcast Clouds9°C9 mph, S100%10000m1024hPa61%
22-Jun-2024 00:00Overcast Clouds14°C11 mph, SE100%10000m1024hPa46%
22-Jun-2024 03:00Overcast Clouds15°C9 mph, S100%10000m1022hPa43%
22-Jun-2024 06:00Overcast Clouds14°C2 mph, E100%10000m1020hPa50%
22-Jun-2024 09:00Broken Clouds11°C4 mph, SW67%10000m1022hPa51%
22-Jun-2024 12:00Scattered Clouds9°C9 mph, S34%10000m1023hPa54%
22-Jun-2024 15:00Clear Sky8°C9 mph, S0%10000m1022hPa60%
22-Jun-2024 18:00Clear Sky6°C7 mph, S0%10000m1021hPa67%
22-Jun-2024 21:00Clear Sky6°C7 mph, S0%10000m1023hPa73%
23-Jun-2024 00:00Clear Sky13°C4 mph, S0%10000m1022hPa48%
23-Jun-2024 03:00Clear Sky16°C7 mph, SW0%10000m1019hPa34%
23-Jun-2024 06:00Clear Sky17°C9 mph, SW0%10000m1018hPa31%
23-Jun-2024 09:00Clear Sky11°C9 mph, SW0%10000m1020hPa46%
23-Jun-2024 12:00Clear Sky10°C9 mph, S0%10000m1020hPa55%
23-Jun-2024 15:00Clear Sky9°C7 mph, SE0%10000m1019hPa64%
23-Jun-2024 18:00Clear Sky8°C7 mph, SE0%10000m1019hPa80%
23-Jun-2024 21:00Clear Sky7°C7 mph, SE0%10000m1020hPa85%
24-Jun-2024 00:00Clear Sky15°C4 mph, E5%10000m1020hPa55%
24-Jun-2024 03:00Clear Sky19°C9 mph, E0%10000m1016hPa45%
24-Jun-2024 06:00Clear Sky19°C4 mph, NE0%10000m1015hPa43%
24-Jun-2024 09:00Clear Sky14°C9 mph, NE1%10000m1017hPa58%
24-Jun-2024 12:00Clear Sky12°C9 mph, NE0%10000m1019hPa66%
24-Jun-2024 15:00Scattered Clouds10°C9 mph, NE26%10000m1019hPa75%
24-Jun-2024 18:00Scattered Clouds9°C9 mph, NE38%10000m1019hPa73%
24-Jun-2024 21:00Scattered Clouds8°C9 mph, NE33%10000m1020hPa72%
25-Jun-2024 00:00Broken Clouds16°C11 mph, NE58%10000m1020hPa47%
25-Jun-2024 03:00Scattered Clouds21°C11 mph, NE45%10000m1017hPa29%
25-Jun-2024 06:00Scattered Clouds21°C9 mph, N50%10000m1017hPa32%
25-Jun-2024 09:00Overcast Clouds18°C9 mph, NE100%10000m1018hPa39%
25-Jun-2024 12:00Overcast Clouds16°C16 mph, NE98%10000m1019hPa50%
25-Jun-2024 15:00Overcast Clouds14°C11 mph, N100%10000m1020hPa70%
25-Jun-2024 18:00Overcast Clouds14°C7 mph, N98%10000m1020hPa78%
25-Jun-2024 21:00Light Rain14°C4 mph, NE91%10000m1022hPa87%
26-Jun-2024 00:00Light Rain17°C11 mph, N86%10000m1022hPa74%
26-Jun-2024 03:00Overcast Clouds17°C9 mph, N100%10000m1020hPa76%
26-Jun-2024 06:00Overcast Clouds17°C2 mph, NW100%10000m1020hPa81%
26-Jun-2024 09:00Overcast Clouds16°C2 mph, E100%10000m1021hPa87%